createdAt,value
2017-01-02T00:00:21.217Z,1012.63
2017-01-02T00:01:21.225Z,1012.63
2017-01-02T00:02:21.280Z,1012.59
2017-01-02T00:03:21.288Z,1012.6
2017-01-02T00:04:21.247Z,1012.61
2017-01-02T00:05:21.252Z,1012.6
2017-01-02T00:06:21.261Z,1012.59
2017-01-02T00:07:22.376Z,1012.61
2017-01-02T00:08:21.274Z,1012.59
2017-01-02T00:09:21.281Z,1012.58
2017-01-02T00:10:21.287Z,1012.56
2017-01-02T00:11:21.296Z,1012.51
2017-01-02T00:12:21.304Z,1012.58
2017-01-02T00:13:21.309Z,1012.54
2017-01-02T00:14:21.367Z,1012.58
2017-01-02T00:15:21.324Z,1012.57
2017-01-02T00:16:21.330Z,1012.57
2017-01-02T00:17:21.337Z,1012.55
2017-01-02T00:18:21.395Z,1012.54
2017-01-02T00:19:21.353Z,1012.56
2017-01-02T00:20:21.359Z,1012.6
2017-01-02T00:21:21.415Z,1012.55
2017-01-02T00:22:21.375Z,1012.59
2017-01-02T00:23:21.382Z,1012.61
2017-01-02T00:24:21.388Z,1012.6
2017-01-02T00:25:21.395Z,1012.63
2017-01-02T00:26:21.403Z,1012.67
2017-01-02T00:27:21.408Z,1012.65
2017-01-02T00:28:21.417Z,1012.64
2017-01-02T00:29:21.424Z,1012.65
2017-01-02T00:30:21.432Z,1012.65
2017-01-02T00:31:21.438Z,1012.61
2017-01-02T00:32:21.496Z,1012.64
2017-01-02T00:33:21.454Z,1012.61
2017-01-02T00:34:21.460Z,1012.63
2017-01-02T00:35:21.467Z,1012.61
2017-01-02T00:36:21.474Z,1012.6
2017-01-02T00:37:21.480Z,1012.62
2017-01-02T00:38:21.538Z,1012.66
2017-01-02T00:39:21.543Z,1012.65
2017-01-02T00:40:21.552Z,1012.67
2017-01-02T00:41:21.511Z,1012.69
2017-01-02T00:42:21.566Z,1012.71
2017-01-02T00:43:21.523Z,1012.71
2017-01-02T00:44:21.532Z,1012.7
2017-01-02T00:45:21.537Z,1012.66
2017-01-02T00:46:21.545Z,1012.63
2017-01-02T00:47:21.602Z,1012.66
2017-01-02T00:48:21.559Z,1012.67
2017-01-02T00:49:21.566Z,1012.62
2017-01-02T00:50:21.574Z,1012.64
2017-01-02T00:51:21.580Z,1012.65
2017-01-02T00:52:21.587Z,1012.69
2017-01-02T00:53:21.593Z,1012.69
2017-01-02T00:54:21.652Z,1012.68
2017-01-02T00:55:21.609Z,1012.67
2017-01-02T00:56:21.616Z,1012.74
2017-01-02T00:57:21.671Z,1012.8
2017-01-02T00:58:21.632Z,1012.84
2017-01-02T00:59:21.638Z,1012.85
2017-01-02T01:00:21.694Z,1012.83
2017-01-02T01:01:21.703Z,1012.83
2017-01-02T01:02:21.710Z,1012.81
2017-01-02T01:03:21.718Z,1012.8
2017-01-02T01:04:21.673Z,1012.85
2017-01-02T01:05:21.680Z,1012.87
2017-01-02T01:06:21.690Z,1012.84
2017-01-02T01:07:21.695Z,1012.86
2017-01-02T01:08:21.704Z,1012.83
2017-01-02T01:09:21.710Z,1012.86
2017-01-02T01:10:21.717Z,1012.87
2017-01-02T01:11:21.723Z,1012.87
2017-01-02T01:12:21.730Z,1012.83
2017-01-02T01:13:21.738Z,1012.87
2017-01-02T01:14:21.746Z,1012.86
2017-01-02T01:15:21.751Z,1012.85
2017-01-02T01:16:21.760Z,1012.86
2017-01-02T01:17:21.816Z,1012.91
2017-01-02T01:18:21.824Z,1012.87
2017-01-02T01:19:21.831Z,1012.87
2017-01-02T01:20:21.787Z,1012.88
2017-01-02T01:21:21.795Z,1012.91
2017-01-02T01:22:21.802Z,1012.91
2017-01-02T01:23:21.810Z,1012.94
2017-01-02T01:24:21.817Z,1012.95
2017-01-02T01:25:21.823Z,1012.94
2017-01-02T01:26:21.830Z,1012.94
2017-01-02T01:27:21.839Z,1012.93
2017-01-02T01:28:21.847Z,1013
2017-01-02T01:29:21.901Z,1013.01
2017-01-02T01:30:21.859Z,1013.04
2017-01-02T01:31:21.866Z,1013.03
2017-01-02T01:32:21.873Z,1013.07
2017-01-02T01:33:21.882Z,1013.06
2017-01-02T01:34:21.888Z,1013.04
2017-01-02T01:35:21.896Z,1013.07
2017-01-02T01:36:21.903Z,1013.09
2017-01-02T01:37:21.911Z,1013.04
2017-01-02T01:38:21.965Z,1013.02
2017-01-02T01:39:21.974Z,1013.01
2017-01-02T01:40:21.983Z,1013.04
2017-01-02T01:41:21.937Z,1013.05
2017-01-02T01:42:21.946Z,1013.06
2017-01-02T01:43:21.951Z,1013.07
2017-01-02T01:44:21.958Z,1013.06
2017-01-02T01:45:22.017Z,1013.06
2017-01-02T01:46:21.975Z,1013.12
2017-01-02T01:47:21.983Z,1013.14
2017-01-02T01:48:21.987Z,1013.11
2017-01-02T01:49:22.047Z,1013.18
2017-01-02T01:50:22.004Z,1013.17
2017-01-02T01:51:22.011Z,1013.17
2017-01-02T01:52:22.017Z,1013.16
2017-01-02T01:53:22.025Z,1013.16
2017-01-02T01:54:22.032Z,1013.16
2017-01-02T01:55:22.340Z,1013.2
2017-01-02T01:56:22.046Z,1013.17
2017-01-02T01:57:22.103Z,1013.2
2017-01-02T01:58:22.061Z,1013.19
2017-01-02T01:59:22.067Z,1013.23
2017-01-02T02:00:22.076Z,1013.24
2017-01-02T02:01:22.383Z,1013.3
2017-01-02T02:02:22.091Z,1013.26
2017-01-02T02:03:22.096Z,1013.25
2017-01-02T02:04:22.404Z,1013.27
2017-01-02T02:05:22.162Z,1013.24
2017-01-02T02:06:22.117Z,1013.18
2017-01-02T02:07:22.125Z,1013.2
2017-01-02T02:08:22.133Z,1013.15
2017-01-02T02:09:22.141Z,1013.07
2017-01-02T02:10:22.597Z,1013.11
2017-01-02T02:11:22.155Z,1013.05
2017-01-02T02:12:22.163Z,1013.05
2017-01-02T02:13:22.169Z,1013.07
2017-01-02T02:14:22.176Z,1013.09
2017-01-02T02:15:22.183Z,1013.07
2017-01-02T02:16:22.191Z,1013.07
2017-01-02T02:17:22.248Z,1013.13
2017-01-02T02:18:22.204Z,1013.14
2017-01-02T02:19:22.212Z,1013.08
2017-01-02T02:20:22.269Z,1013.09
2017-01-02T02:21:22.576Z,1013.11
2017-01-02T02:22:22.283Z,1013.15
2017-01-02T02:23:22.240Z,1013.12
2017-01-02T02:24:22.248Z,1013.13
2017-01-02T02:25:22.304Z,1013.19
2017-01-02T02:26:22.261Z,1013.2
2017-01-02T02:27:22.269Z,1013.17
2017-01-02T02:28:22.325Z,1013.18
2017-01-02T02:29:22.283Z,1013.18
2017-01-02T02:30:22.290Z,1013.2
2017-01-02T02:31:22.298Z,1013.22
2017-01-02T02:32:23.055Z,1013.25
2017-01-02T02:33:22.314Z,1013.23
2017-01-02T02:34:22.370Z,1013.25
2017-01-02T02:35:22.378Z,1013.21
2017-01-02T02:36:22.333Z,1013.21
2017-01-02T02:37:22.341Z,1013.21
2017-01-02T02:38:22.348Z,1013.24
2017-01-02T02:39:22.355Z,1013.24
2017-01-02T02:40:22.363Z,1013.2
2017-01-02T02:41:22.371Z,1013.25
2017-01-02T02:42:22.379Z,1013.25
2017-01-02T02:43:23.384Z,1013.28
2017-01-02T02:44:22.391Z,1013.33
2017-01-02T02:45:22.399Z,1013.33
2017-01-02T02:46:22.405Z,1013.34
2017-01-02T02:47:22.412Z,1013.34
2017-01-02T02:48:22.422Z,1013.3
2017-01-02T02:49:22.477Z,1013.31
2017-01-02T02:50:22.434Z,1013.29
2017-01-02T02:51:22.440Z,1013.33
2017-01-02T02:52:22.448Z,1013.28
2017-01-02T02:53:22.506Z,1013.3
2017-01-02T02:54:23.613Z,1013.31
2017-01-02T02:55:22.470Z,1013.29
2017-01-02T02:56:22.477Z,1013.31
2017-01-02T02:57:22.484Z,1013.27
2017-01-02T02:58:22.490Z,1013.26
2017-01-02T02:59:22.499Z,1013.24
2017-01-02T03:00:22.556Z,1013.25
2017-01-02T03:01:22.513Z,1013.25
2017-01-02T03:02:22.569Z,1013.26
2017-01-02T03:03:22.577Z,1013.27
2017-01-02T03:04:22.534Z,1013.22
2017-01-02T03:05:23.692Z,1013.24
2017-01-02T03:06:22.548Z,1013.21
2017-01-02T03:07:22.607Z,1013.25
2017-01-02T03:08:22.613Z,1013.26
2017-01-02T03:09:22.569Z,1013.25
2017-01-02T03:10:22.577Z,1013.24
2017-01-02T03:11:22.584Z,1013.3
2017-01-02T03:12:22.590Z,1013.29
2017-01-02T03:13:22.598Z,1013.26
2017-01-02T03:14:22.604Z,1013.26
2017-01-02T03:15:22.614Z,1013.33
2017-01-02T03:16:22.619Z,1013.32
2017-01-02T03:17:22.627Z,1013.36
2017-01-02T03:18:22.634Z,1013.42
2017-01-02T03:19:22.690Z,1013.42
2017-01-02T03:20:22.698Z,1013.42
2017-01-02T03:21:22.705Z,1013.44
2017-01-02T03:22:22.663Z,1013.43
2017-01-02T03:23:22.721Z,1013.47
2017-01-02T03:24:22.725Z,1013.5
2017-01-02T03:25:22.683Z,1013.51
2017-01-02T03:26:22.691Z,1013.56
2017-01-02T03:27:22.697Z,1013.49
2017-01-02T03:29:22.712Z,1013.44
2017-01-02T03:30:22.718Z,1013.47
2017-01-02T03:31:22.725Z,1013.42
2017-01-02T03:32:22.732Z,1013.42
2017-01-02T03:33:22.740Z,1013.38
2017-01-02T03:34:22.747Z,1013.36
2017-01-02T03:35:22.754Z,1013.34
2017-01-02T03:36:23.162Z,1013.33
2017-01-02T03:37:22.769Z,1013.26
2017-01-02T03:38:22.777Z,1013.23
2017-01-02T03:39:22.783Z,1013.22
2017-01-02T03:40:22.841Z,1013.23
2017-01-02T03:41:22.796Z,1013.2
2017-01-02T03:42:22.855Z,1013.22
2017-01-02T03:43:22.811Z,1013.26
2017-01-02T03:44:22.818Z,1013.24
2017-01-02T03:45:22.875Z,1013.2
2017-01-02T03:46:22.883Z,1013.19
2017-01-02T03:47:23.239Z,1013.2
2017-01-02T03:48:22.847Z,1013.22
2017-01-02T03:49:22.852Z,1013.23
2017-01-02T03:50:22.860Z,1013.28
2017-01-02T03:51:22.867Z,1013.32
2017-01-02T03:52:22.924Z,1013.34
2017-01-02T03:53:22.931Z,1013.33
2017-01-02T03:54:22.891Z,1013.34
2017-01-02T03:55:22.947Z,1013.36
2017-01-02T03:56:22.903Z,1013.36
2017-01-02T03:57:22.961Z,1013.35
2017-01-02T03:58:23.468Z,1013.34
2017-01-02T03:59:22.925Z,1013.34
2017-01-02T04:00:22.931Z,1013.33
2017-01-02T04:01:22.939Z,1013.32
2017-01-02T04:02:22.946Z,1013.37
2017-01-02T04:03:22.954Z,1013.35
2017-01-02T04:04:22.960Z,1013.34
2017-01-02T04:05:23.016Z,1013.37
2017-01-02T04:06:22.973Z,1013.4
2017-01-02T04:07:22.980Z,1013.41
2017-01-02T04:08:23.037Z,1013.43
2017-01-02T04:09:23.895Z,1013.45
2017-01-02T04:10:23.054Z,1013.46
2017-01-02T04:11:23.010Z,1013.52
2017-01-02T04:12:23.017Z,1013.56
2017-01-02T04:13:23.074Z,1013.58
2017-01-02T04:14:23.032Z,1013.53
2017-01-02T04:15:23.088Z,1013.48
2017-01-02T04:16:23.046Z,1013.5
2017-01-02T04:17:23.054Z,1013.43
2017-01-02T04:18:23.060Z,1013.46
2017-01-02T04:19:23.066Z,1013.45
2017-01-02T04:20:24.176Z,1013.48
2017-01-02T04:21:23.080Z,1013.48
2017-01-02T04:22:23.138Z,1013.52
2017-01-02T04:23:23.095Z,1013.52
2017-01-02T04:24:23.102Z,1013.52
2017-01-02T04:25:23.158Z,1013.55
2017-01-02T04:26:23.116Z,1013.57
2017-01-02T04:27:23.123Z,1013.59
2017-01-02T04:28:23.180Z,1013.58
2017-01-02T04:29:23.187Z,1013.65
2017-01-02T04:30:23.144Z,1013.66
2017-01-02T04:31:23.150Z,1013.64
2017-01-02T04:32:23.158Z,1013.64
2017-01-02T04:33:23.164Z,1013.67
2017-01-02T04:34:23.172Z,1013.64
2017-01-02T04:35:23.181Z,1013.65
2017-01-02T04:36:23.186Z,1013.66
2017-01-02T04:37:23.193Z,1013.67
2017-01-02T04:38:23.252Z,1013.65
2017-01-02T04:39:23.208Z,1013.67
2017-01-02T04:40:23.265Z,1013.68
2017-01-02T04:41:23.222Z,1013.69
2017-01-02T04:42:23.229Z,1013.69
2017-01-02T04:43:23.236Z,1013.65
2017-01-02T04:44:23.293Z,1013.64
2017-01-02T04:45:23.249Z,1013.64
2017-01-02T04:46:23.258Z,1013.61
2017-01-02T04:47:23.314Z,1013.6
2017-01-02T04:48:23.271Z,1013.61
2017-01-02T04:49:23.279Z,1013.61
2017-01-02T04:50:23.287Z,1013.56
2017-01-02T04:51:23.293Z,1013.56
2017-01-02T04:52:23.300Z,1013.55
2017-01-02T04:53:23.307Z,1013.51
2017-01-02T04:54:23.365Z,1013.5
2017-01-02T04:55:23.621Z,1013.52
2017-01-02T04:56:23.328Z,1013.49
2017-01-02T04:57:23.336Z,1013.51
2017-01-02T04:59:24.398Z,1013.48
2017-01-02T05:00:23.358Z,1013.48
2017-01-02T05:01:23.364Z,1013.48
2017-01-02T05:02:23.369Z,1013.44
2017-01-02T05:03:23.377Z,1013.49
2017-01-02T05:04:23.386Z,1013.48
2017-01-02T05:05:23.439Z,1013.52
2017-01-02T05:06:23.398Z,1013.51
2017-01-02T05:07:23.406Z,1013.53
2017-01-02T05:08:23.413Z,1013.56
2017-01-02T05:09:23.870Z,1013.54
2017-01-02T05:10:23.427Z,1013.58
2017-01-02T05:11:23.435Z,1013.59
2017-01-02T05:12:23.441Z,1013.58
2017-01-02T05:13:23.447Z,1013.59
2017-01-02T05:14:23.455Z,1013.52
2017-01-02T05:15:23.464Z,1013.55
2017-01-02T05:16:23.469Z,1013.52
2017-01-02T05:17:23.526Z,1013.53
2017-01-02T05:18:23.484Z,1013.47
2017-01-02T05:19:23.492Z,1013.56
2017-01-02T05:20:23.497Z,1013.59
2017-01-02T05:21:23.504Z,1013.59
2017-01-02T05:22:23.522Z,1013.58
2017-01-02T05:23:23.520Z,1013.64
2017-01-02T05:24:23.576Z,1013.6
2017-01-02T05:25:23.535Z,1013.65
2017-01-02T05:26:23.541Z,1013.67
2017-01-02T05:27:23.548Z,1013.66
2017-01-02T05:29:23.562Z,1013.65
2017-01-02T05:30:23.620Z,1013.64
2017-01-02T05:31:23.576Z,1013.63
2017-01-02T05:32:23.582Z,1013.62
2017-01-02T05:33:23.640Z,1013.59
2017-01-02T05:34:23.598Z,1013.62
2017-01-02T05:35:23.654Z,1013.62
2017-01-02T05:36:23.662Z,1013.62
2017-01-02T05:37:23.919Z,1013.61
2017-01-02T05:38:23.625Z,1013.6
2017-01-02T05:39:23.933Z,1013.58
2017-01-02T05:40:23.690Z,1013.59
2017-01-02T05:41:23.698Z,1013.61
2017-01-02T05:42:23.657Z,1013.58
2017-01-02T05:43:23.710Z,1013.53
2017-01-02T05:44:23.668Z,1013.54
2017-01-02T05:45:23.726Z,1013.53
2017-01-02T05:46:23.683Z,1013.52
2017-01-02T05:47:23.691Z,1013.53
2017-01-02T05:48:23.698Z,1013.53
2017-01-02T05:49:23.756Z,1013.5
2017-01-02T05:50:24.712Z,1013.52
2017-01-02T05:51:23.769Z,1013.54
2017-01-02T05:52:23.727Z,1013.6
2017-01-02T05:53:23.733Z,1013.55
2017-01-02T05:54:23.741Z,1013.59
2017-01-02T05:55:23.799Z,1013.55
2017-01-02T05:56:23.754Z,1013.55
2017-01-02T05:57:23.762Z,1013.55
2017-01-02T05:58:25.070Z,1013.51
2017-01-02T05:59:23.775Z,1013.59
2017-01-02T06:00:23.785Z,1013.6
2017-01-02T06:01:24.891Z,1013.64
2017-01-02T06:02:23.797Z,1013.65
2017-01-02T06:03:23.804Z,1013.64
2017-01-02T06:04:23.861Z,1013.67
2017-01-02T06:05:23.818Z,1013.64
2017-01-02T06:06:23.876Z,1013.63
2017-01-02T06:07:23.833Z,1013.67
2017-01-02T06:08:23.846Z,1013.68
2017-01-02T06:09:23.847Z,1013.71
2017-01-02T06:10:23.855Z,1013.7
2017-01-02T06:11:23.912Z,1013.72
2017-01-02T06:12:23.869Z,1013.76
2017-01-02T06:13:23.875Z,1013.72
2017-01-02T06:14:23.881Z,1013.75
2017-01-02T06:15:23.888Z,1013.78
2017-01-02T06:16:23.896Z,1013.75
2017-01-02T06:17:23.906Z,1013.75
2017-01-02T06:18:23.910Z,1013.81
2017-01-02T06:19:23.967Z,1013.8
2017-01-02T06:20:23.926Z,1013.82
2017-01-02T06:21:23.933Z,1013.85
2017-01-02T06:22:23.945Z,1013.88
2017-01-02T06:23:23.946Z,1013.85
2017-01-02T06:24:23.954Z,1013.88
2017-01-02T06:25:23.961Z,1013.89
2017-01-02T06:26:23.968Z,1013.9
2017-01-02T06:27:23.975Z,1013.9
2017-01-02T06:28:24.033Z,1013.9
2017-01-02T06:29:24.040Z,1013.92
2017-01-02T06:30:23.997Z,1013.91
2017-01-02T06:31:24.053Z,1013.97
2017-01-02T06:32:24.059Z,1013.92
2017-01-02T06:33:24.016Z,1013.96
2017-01-02T06:34:24.025Z,1013.99
2017-01-02T06:35:24.032Z,1013.96
2017-01-02T06:36:24.040Z,1013.93
2017-01-02T06:37:24.046Z,1013.91
2017-01-02T06:38:24.055Z,1013.93
2017-01-02T06:39:24.061Z,1013.87
2017-01-02T06:40:24.067Z,1013.82
2017-01-02T06:41:24.074Z,1013.84
2017-01-02T06:42:24.081Z,1013.86
2017-01-02T06:43:24.390Z,1013.86
2017-01-02T06:44:24.146Z,1013.94
2017-01-02T06:45:24.101Z,1013.94
2017-01-02T06:46:24.160Z,1013.95
2017-01-02T06:47:24.181Z,1013.92
2017-01-02T06:48:24.125Z,1013.88
2017-01-02T06:49:24.132Z,1013.86
2017-01-02T06:50:24.189Z,1013.88
2017-01-02T06:51:24.146Z,1013.86
2017-01-02T06:52:24.153Z,1013.89
2017-01-02T06:53:24.159Z,1013.84
2017-01-02T06:54:25.318Z,1013.84
2017-01-02T06:55:24.174Z,1013.85
2017-01-02T06:56:24.181Z,1013.86
2017-01-02T06:57:24.189Z,1013.84
2017-01-02T06:58:24.195Z,1013.83
2017-01-02T06:59:24.252Z,1013.82
2017-01-02T07:00:24.258Z,1013.82
2017-01-02T07:01:24.217Z,1013.83
2017-01-02T07:02:24.274Z,1013.84
2017-01-02T07:03:24.231Z,1013.85
2017-01-02T07:04:24.239Z,1013.88
2017-01-02T07:05:24.296Z,1013.9
2017-01-02T07:06:24.252Z,1013.88
2017-01-02T07:07:24.260Z,1013.89
2017-01-02T07:08:24.267Z,1013.9
2017-01-02T07:09:24.275Z,1013.9
2017-01-02T07:10:24.331Z,1013.96
2017-01-02T07:11:24.286Z,1013.96
2017-01-02T07:12:24.296Z,1013.94
2017-01-02T07:13:24.301Z,1013.99
2017-01-02T07:14:24.310Z,1014.01
2017-01-02T07:15:24.317Z,1014.05
2017-01-02T07:16:24.376Z,1014.07
2017-01-02T07:17:24.330Z,1014.07
2017-01-02T07:18:24.338Z,1014.11
2017-01-02T07:19:24.348Z,1014.17
2017-01-02T07:20:24.353Z,1014.17
2017-01-02T07:21:24.361Z,1014.12
2017-01-02T07:22:24.368Z,1014.12
2017-01-02T07:23:24.376Z,1014.19
2017-01-02T07:24:24.381Z,1014.25
2017-01-02T07:25:24.639Z,1014.27
2017-01-02T07:26:24.447Z,1014.23
2017-01-02T07:27:24.404Z,1014.28
2017-01-02T07:28:24.411Z,1014.3
2017-01-02T07:29:24.419Z,1014.29
2017-01-02T07:30:24.477Z,1014.33
2017-01-02T07:31:24.731Z,1014.37
2017-01-02T07:32:24.439Z,1014.44
2017-01-02T07:33:24.447Z,1014.46
2017-01-02T07:34:24.454Z,1014.43
2017-01-02T07:35:24.461Z,1014.41
2017-01-02T07:36:25.119Z,1014.43
2017-01-02T07:37:24.475Z,1014.45
2017-01-02T07:38:24.482Z,1014.48
2017-01-02T07:39:24.540Z,1014.5
2017-01-02T07:40:24.497Z,1014.55
2017-01-02T07:41:24.505Z,1014.55
2017-01-02T07:42:24.561Z,1014.57
2017-01-02T07:43:24.517Z,1014.61
2017-01-02T07:44:24.526Z,1014.64
2017-01-02T07:45:24.582Z,1014.66
2017-01-02T07:46:24.540Z,1014.71
2017-01-02T07:47:25.700Z,1014.73
2017-01-02T07:48:24.555Z,1014.73
2017-01-02T07:49:24.563Z,1014.71
2017-01-02T07:50:24.570Z,1014.77
2017-01-02T07:51:24.578Z,1014.83
2017-01-02T07:52:24.584Z,1014.8
2017-01-02T07:53:24.642Z,1014.84
2017-01-02T07:54:24.599Z,1014.85
2017-01-02T07:55:24.607Z,1014.89
2017-01-02T07:56:24.615Z,1014.9
2017-01-02T07:57:24.672Z,1014.92
2017-01-02T07:58:24.631Z,1014.91
2017-01-02T07:59:24.639Z,1014.95
2017-01-02T08:00:24.647Z,1014.91
2017-01-02T08:01:24.653Z,1014.93
2017-01-02T08:02:24.660Z,1014.93
2017-01-02T08:03:24.718Z,1014.97
2017-01-02T08:04:24.676Z,1014.98
2017-01-02T08:05:24.684Z,1015
2017-01-02T08:06:24.692Z,1015.03
2017-01-02T08:07:24.700Z,1015.06
2017-01-02T08:08:24.707Z,1015.06
2017-01-02T08:09:24.715Z,1015.11
2017-01-02T08:10:24.773Z,1015.07
2017-01-02T08:11:24.731Z,1015.12
2017-01-02T08:12:24.738Z,1015.18
2017-01-02T08:13:24.746Z,1015.18
2017-01-02T08:14:24.806Z,1015.16
2017-01-02T08:15:24.761Z,1015.14
2017-01-02T08:16:24.769Z,1015.2
2017-01-02T08:17:24.778Z,1015.25
2017-01-02T08:18:24.785Z,1015.23
2017-01-02T08:19:24.793Z,1015.24
2017-01-02T08:20:24.800Z,1015.22
2017-01-02T08:21:24.810Z,1015.17
2017-01-02T08:22:24.817Z,1015.15
2017-01-02T08:23:24.826Z,1015.12
2017-01-02T08:24:24.833Z,1015.13
2017-01-02T08:25:24.839Z,1015.15
2017-01-02T08:26:24.899Z,1015.17
2017-01-02T08:27:24.858Z,1015.21
2017-01-02T08:28:24.913Z,1015.25
2017-01-02T08:29:24.923Z,1015.22
2017-01-02T08:30:24.931Z,1015.19
2017-01-02T08:31:24.889Z,1015.24
2017-01-02T08:32:24.897Z,1015.21
2017-01-02T08:33:24.904Z,1015.2
2017-01-02T08:34:24.913Z,1015.2
2017-01-02T08:35:24.921Z,1015.23
2017-01-02T08:36:24.929Z,1015.26
2017-01-02T08:37:24.937Z,1015.27
2017-01-02T08:38:24.946Z,1015.28
2017-01-02T08:39:24.953Z,1015.32
2017-01-02T08:40:25.012Z,1015.32
2017-01-02T08:41:24.970Z,1015.34
2017-01-02T08:42:25.036Z,1015.33
2017-01-02T08:43:24.984Z,1015.35
2017-01-02T08:44:25.045Z,1015.35
2017-01-02T08:45:25.002Z,1015.35
2017-01-02T08:46:25.009Z,1015.37
2017-01-02T08:47:25.018Z,1015.37
2017-01-02T08:48:25.026Z,1015.39
2017-01-02T08:49:25.084Z,1015.36
2017-01-02T08:50:25.092Z,1015.37
2017-01-02T08:51:25.101Z,1015.35
2017-01-02T08:52:25.059Z,1015.38
2017-01-02T08:53:25.117Z,1015.35
2017-01-02T08:54:25.075Z,1015.37
2017-01-02T08:55:25.134Z,1015.4
2017-01-02T08:56:25.093Z,1015.43
2017-01-02T08:57:25.101Z,1015.46
2017-01-02T08:58:25.160Z,1015.42
2017-01-02T08:59:25.117Z,1015.42
2017-01-02T09:00:25.125Z,1015.44
2017-01-02T09:01:25.133Z,1015.48
2017-01-02T09:02:25.193Z,1015.48
2017-01-02T09:03:25.149Z,1015.43
2017-01-02T09:04:25.207Z,1015.41
2017-01-02T09:05:25.216Z,1015.39
2017-01-02T09:06:25.174Z,1015.42
2017-01-02T09:07:25.182Z,1015.43
2017-01-02T09:08:25.191Z,1015.44
2017-01-02T09:09:25.200Z,1015.48
2017-01-02T09:10:25.220Z,1015.45
2017-01-02T09:11:25.263Z,1015.5
2017-01-02T09:12:25.273Z,1015.49
2017-01-02T09:13:25.229Z,1015.48
2017-01-02T09:14:25.286Z,1015.47
2017-01-02T09:15:25.247Z,1015.43
2017-01-02T09:16:25.255Z,1015.48
2017-01-02T09:17:25.713Z,1015.42
2017-01-02T09:18:25.272Z,1015.44
2017-01-02T09:19:25.280Z,1015.44
2017-01-02T09:20:25.288Z,1015.48
2017-01-02T09:21:25.345Z,1015.51
2017-01-02T09:22:25.353Z,1015.49
2017-01-02T09:23:25.313Z,1015.46
2017-01-02T09:24:25.321Z,1015.44
2017-01-02T09:25:25.378Z,1015.47
2017-01-02T09:26:25.337Z,1015.49
2017-01-02T09:27:25.344Z,1015.5
2017-01-02T09:28:26.053Z,1015.49
2017-01-02T09:29:25.362Z,1015.42
2017-01-02T09:30:25.418Z,1015.43
2017-01-02T09:31:25.428Z,1015.45
2017-01-02T09:32:25.385Z,1015.5
2017-01-02T09:33:25.445Z,1015.47
2017-01-02T09:34:25.402Z,1015.48
2017-01-02T09:35:25.961Z,1015.49
2017-01-02T09:36:25.468Z,1015.55
2017-01-02T09:37:25.426Z,1015.56
2017-01-02T09:38:25.437Z,1015.64
2017-01-02T09:39:26.544Z,1015.63
2017-01-02T09:40:25.450Z,1015.6
2017-01-02T09:41:25.511Z,1015.65
2017-01-02T09:42:25.469Z,1015.62
2017-01-02T09:43:25.475Z,1015.64
2017-01-02T09:44:25.534Z,1015.64
2017-01-02T09:45:25.544Z,1015.66
2017-01-02T09:46:25.503Z,1015.66
2017-01-02T09:47:25.510Z,1015.68
2017-01-02T09:48:25.569Z,1015.75
2017-01-02T09:49:25.527Z,1015.72
2017-01-02T09:50:25.535Z,1015.67
2017-01-02T09:51:25.545Z,1015.66
2017-01-02T09:52:25.602Z,1015.68
2017-01-02T09:53:25.561Z,1015.68
2017-01-02T09:54:25.567Z,1015.68
2017-01-02T09:55:25.578Z,1015.69
2017-01-02T09:56:25.587Z,1015.72
2017-01-02T09:57:25.595Z,1015.71
2017-01-02T09:58:25.653Z,1015.73
2017-01-02T09:59:25.661Z,1015.67
2017-01-02T10:00:25.620Z,1015.68
2017-01-02T10:01:25.628Z,1015.67
2017-01-02T10:02:25.636Z,1015.65
2017-01-02T10:03:25.645Z,1015.63
2017-01-02T10:04:25.653Z,1015.6
2017-01-02T10:05:25.660Z,1015.57
2017-01-02T10:06:25.670Z,1015.59
2017-01-02T10:07:25.677Z,1015.56
2017-01-02T10:08:25.687Z,1015.54
2017-01-02T10:09:25.745Z,1015.57
2017-01-02T10:10:25.853Z,1015.59
2017-01-02T10:11:25.712Z,1015.59
2017-01-02T10:12:25.771Z,1015.58
2017-01-02T10:13:25.728Z,1015.63
2017-01-02T10:14:25.737Z,1015.61
2017-01-02T10:15:25.746Z,1015.61
2017-01-02T10:16:25.755Z,1015.58
2017-01-02T10:17:25.813Z,1015.61
2017-01-02T10:18:25.771Z,1015.59
2017-01-02T10:19:25.781Z,1015.57
2017-01-02T10:20:25.789Z,1015.57
2017-01-02T10:21:26.247Z,1015.59
2017-01-02T10:22:25.805Z,1015.54
2017-01-02T10:23:25.812Z,1015.52
2017-01-02T10:24:25.822Z,1015.55
2017-01-02T10:25:25.831Z,1015.52
2017-01-02T10:26:25.888Z,1015.55
2017-01-02T10:27:25.898Z,1015.54
2017-01-02T10:28:25.856Z,1015.55
2017-01-02T10:29:25.864Z,1015.57
2017-01-02T10:30:25.873Z,1015.57
2017-01-02T10:31:25.881Z,1015.59
2017-01-02T10:32:26.791Z,1015.59
2017-01-02T10:33:25.901Z,1015.58
2017-01-02T10:34:25.906Z,1015.62
2017-01-02T10:35:25.966Z,1015.63
2017-01-02T10:36:25.923Z,1015.65
2017-01-02T10:37:25.933Z,1015.6
2017-01-02T10:38:25.939Z,1015.64
2017-01-02T10:39:25.951Z,1015.6
2017-01-02T10:40:25.957Z,1015.62
2017-01-02T10:41:26.016Z,1015.57
2017-01-02T10:42:25.975Z,1015.61
2017-01-02T10:43:26.032Z,1015.56
2017-01-02T10:44:25.992Z,1015.61
2017-01-02T10:45:26.048Z,1015.56
2017-01-02T10:46:26.005Z,1015.56
2017-01-02T10:47:26.016Z,1015.56
2017-01-02T10:48:26.074Z,1015.6
2017-01-02T10:49:26.081Z,1015.54
2017-01-02T10:50:26.092Z,1015.53
2017-01-02T10:51:26.049Z,1015.54
2017-01-02T10:52:26.056Z,1015.55
2017-01-02T10:53:26.115Z,1015.57
2017-01-02T10:54:26.124Z,1015.6
2017-01-02T10:55:26.132Z,1015.54
2017-01-02T10:56:26.091Z,1015.54
2017-01-02T10:57:26.097Z,1015.59
2017-01-02T10:58:26.107Z,1015.59
2017-01-02T10:59:26.117Z,1015.62
2017-01-02T11:00:26.125Z,1015.63
2017-01-02T11:01:26.133Z,1015.65
2017-01-02T11:02:26.142Z,1015.66
2017-01-02T11:03:26.198Z,1015.69
2017-01-02T11:04:26.157Z,1015.73
2017-01-02T11:05:26.169Z,1015.69
2017-01-02T11:06:26.475Z,1015.68
2017-01-02T11:07:26.231Z,1015.65
2017-01-02T11:08:26.190Z,1015.65
2017-01-02T11:09:26.197Z,1015.6
2017-01-02T11:10:26.208Z,1015.59
2017-01-02T11:11:26.214Z,1015.63
2017-01-02T11:12:26.223Z,1015.63
2017-01-02T11:13:26.232Z,1015.67
2017-01-02T11:14:26.238Z,1015.62
2017-01-02T11:15:26.250Z,1015.65
2017-01-02T11:16:26.305Z,1015.65
2017-01-02T11:17:26.314Z,1015.68
2017-01-02T11:18:26.271Z,1015.7
2017-01-02T11:19:26.282Z,1015.71
2017-01-02T11:20:26.288Z,1015.75
2017-01-02T11:21:26.297Z,1015.73
2017-01-02T11:22:26.307Z,1015.73
2017-01-02T11:23:26.313Z,1015.71
2017-01-02T11:24:26.373Z,1015.73
2017-01-02T11:25:26.380Z,1015.73
2017-01-02T11:26:26.338Z,1015.73
2017-01-02T11:27:26.348Z,1015.71
2017-01-02T11:28:26.356Z,1015.68
2017-01-02T11:29:26.364Z,1015.73
2017-01-02T11:30:26.422Z,1015.7
2017-01-02T11:31:26.381Z,1015.71
2017-01-02T11:32:26.391Z,1015.74
2017-01-02T11:33:26.446Z,1015.71
2017-01-02T11:34:26.407Z,1015.7
2017-01-02T11:35:26.415Z,1015.7
2017-01-02T11:36:26.422Z,1015.66
2017-01-02T11:37:26.431Z,1015.7
2017-01-02T11:38:26.439Z,1015.68
2017-01-02T11:39:26.449Z,1015.66
2017-01-02T11:40:26.556Z,1015.62
2017-01-02T11:41:26.464Z,1015.64
2017-01-02T11:42:26.473Z,1015.65
2017-01-02T11:43:26.482Z,1015.65
2017-01-02T11:44:26.541Z,1015.65
2017-01-02T11:45:26.499Z,1015.64
2017-01-02T11:46:26.508Z,1015.68
2017-01-02T11:47:26.516Z,1015.69
2017-01-02T11:48:26.524Z,1015.62
2017-01-02T11:49:26.534Z,1015.67
2017-01-02T11:50:26.543Z,1015.58
2017-01-02T11:51:27.099Z,1015.58
2017-01-02T11:52:26.559Z,1015.59
2017-01-02T11:53:26.617Z,1015.56
2017-01-02T11:54:26.575Z,1015.59
2017-01-02T11:55:26.584Z,1015.6
2017-01-02T11:56:26.591Z,1015.65
2017-01-02T11:57:26.650Z,1015.64
2017-01-02T11:58:26.607Z,1015.73
2017-01-02T11:59:26.619Z,1015.7
2017-01-02T12:00:26.625Z,1015.7
2017-01-02T12:01:26.634Z,1015.72
2017-01-02T12:02:27.644Z,1015.77
2017-01-02T12:03:26.700Z,1015.76
2017-01-02T12:04:26.659Z,1015.76
2017-01-02T12:05:26.718Z,1015.72
2017-01-02T12:06:26.680Z,1015.75
2017-01-02T12:07:26.685Z,1015.77
2017-01-02T12:08:26.694Z,1015.8
2017-01-02T12:09:26.702Z,1015.78
2017-01-02T12:10:26.761Z,1015.78